Time;durP1;ratioP1;P1;durP2;ratioP2;P2;SDS_P1;SDS_P2;PMS_P1;PMS_P2;Temp;Humidity;BMP_temperature;BMP_pressure;BME280_temperature;BME280_humidity;BME280_pressure;Samples;Min_cycle;Max_cycle;Signal;HPM_P1;HPM_P2
2020/12/30 00:02:13;;;;;;;3.40;3.03;;;;;;;3.45;71.43;98880.81;5054641;28;20693;-63
2020/12/30 00:04:39;;;;;;;3.67;3.07;;;;;;;3.45;71.78;98882.59;5064817;28;20211;-63
2020/12/30 00:07:05;;;;;;;5.17;3.13;;;;;;;3.45;71.54;98880.81;5068340;28;20207;-63
2020/12/30 00:09:32;;;;;;;4.23;3.20;;;;;;;3.46;72.10;98885.13;5058901;28;20255;-64
2020/12/30 00:11:58;;;;;;;3.87;3.17;;;;;;;3.46;71.70;98882.50;5056604;28;20233;-63
2020/12/30 00:14:24;;;;;;;4.67;3.07;;;;;;;3.46;71.51;98885.13;5064113;28;20296;-64
2020/12/30 00:16:50;;;;;;;5.47;3.17;;;;;;;3.47;71.87;98884.19;5065597;28;20258;-64
2020/12/30 00:19:16;;;;;;;4.60;3.40;;;;;;;3.48;72.43;98885.88;5061463;28;20201;-64
2020/12/30 00:21:42;;;;;;;3.40;2.83;;;;;;;3.47;71.63;98884.19;5068634;28;20243;-64
2020/12/30 00:24:08;;;;;;;5.50;3.10;;;;;;;3.48;71.39;98892.94;5058860;28;20209;-63
2020/12/30 00:26:35;;;;;;;4.73;2.80;;;;;;;3.48;71.37;98883.25;5070110;28;20209;-64
2020/12/30 00:29:01;;;;;;;3.10;2.67;;;;;;;3.48;72.46;98887.66;5059958;28;20207;-64
2020/12/30 00:31:29;;;;;;;5.77;3.00;;;;;;;3.49;72.25;98889.38;5066107;28;20232;-62
2020/12/30 00:33:55;;;;;;;6.50;3.53;;;;;;;3.51;72.12;98894.53;5058923;28;20209;-64
2020/12/30 00:36:21;;;;;;;4.83;2.90;;;;;;;3.52;72.19;98889.19;5062964;28;20226;-64
2020/12/30 00:38:47;;;;;;;3.40;2.87;;;;;;;3.55;72.46;98891.63;5059932;28;20198;-64
2020/12/30 00:41:14;;;;;;;3.97;2.70;;;;;;;3.56;72.02;98900.38;5053163;28;20221;-64
2020/12/30 00:43:41;;;;;;;7.10;3.33;;;;;;;3.56;72.21;98897.72;5052842;28;20217;-64
2020/12/30 00:46:14;;;;;;;5.60;3.17;;;;;;;3.56;71.58;98903.00;5056272;28;20201;-64
2020/12/30 00:48:40;;;;;;;8.17;5.63;;;;;;;3.57;71.83;98899.44;5071682;28;20208;-64
2020/12/30 00:51:06;;;;;;;6.60;4.87;;;;;;;3.58;72.25;98901.13;5055480;28;20233;-64
2020/12/30 00:53:32;;;;;;;6.27;4.37;;;;;;;3.59;71.33;98908.88;5057778;28;20211;-64
2020/12/30 00:55:58;;;;;;;5.60;3.80;;;;;;;3.60;71.45;98909.75;5052483;28;20223;-64
2020/12/30 00:58:24;;;;;;;3.90;3.20;;;;;;;3.60;71.90;98912.38;5053350;28;20575;-64
2020/12/30 01:00:51;;;;;;;3.47;3.13;;;;;;;3.59;71.75;98906.25;5051926;28;20275;-64
2020/12/30 01:03:17;;;;;;;4.03;3.63;;;;;;;3.58;71.52;98899.34;5064663;28;20200;-64
2020/12/30 01:05:43;;;;;;;4.93;3.20;;;;;;;3.57;71.36;98909.97;5056260;28;20205;-63
2020/12/30 01:08:09;;;;;;;4.40;3.80;;;;;;;3.57;72.12;98909.97;5057931;28;20258;-64
2020/12/30 01:10:35;;;;;;;4.93;3.13;;;;;;;3.56;71.50;98903.00;5062890;28;20222;-64
2020/12/30 01:13:01;;;;;;;4.87;3.00;;;;;;;3.54;71.74;98904.88;5055350;28;20284;-64
2020/12/30 01:15:27;;;;;;;5.87;3.30;;;;;;;3.52;71.51;98909.38;5059473;28;21505;-64
2020/12/30 01:17:54;;;;;;;4.13;3.43;;;;;;;3.48;71.81;98908.72;5061919;28;20211;-64
2020/12/30 01:20:20;;;;;;;7.10;3.63;;;;;;;3.45;71.83;98908.91;5057023;28;20756;-64
2020/12/30 01:22:46;;;;;;;4.23;3.57;;;;;;;3.43;71.24;98916.91;5051108;28;20666;-65
2020/12/30 01:25:12;;;;;;;3.53;3.20;;;;;;;3.41;71.89;98918.78;5056468;28;20207;-64
2020/12/30 01:27:38;;;;;;;4.83;3.43;;;;;;;3.38;71.93;98908.47;5057083;28;20205;-63
2020/12/30 01:30:04;;;;;;;4.47;3.17;;;;;;;3.34;71.20;98917.47;5067524;28;20208;-64
2020/12/30 01:32:31;;;;;;;4.43;3.13;;;;;;;3.31;71.60;98922.06;5063650;28;20233;-64
2020/12/30 01:34:58;;;;;;;4.00;3.23;;;;;;;3.28;71.55;98917.84;5058633;28;20233;-64
2020/12/30 01:37:25;;;;;;;4.63;3.20;;;;;;;3.26;71.06;98929.41;5054936;28;20202;-64
2020/12/30 01:39:51;;;;;;;5.00;3.20;;;;;;;3.22;71.65;98926.13;5069466;28;20196;-64
2020/12/30 01:42:17;;;;;;;3.53;2.80;;;;;;;3.18;71.55;98932.50;5060395;28;20217;-65
2020/12/30 01:44:43;;;;;;;4.20;3.07;;;;;;;3.16;71.52;98933.53;5055574;28;20205;-64
2020/12/30 01:47:09;;;;;;;3.03;2.70;;;;;;;3.13;71.16;98931.94;5063658;28;20262;-65
2020/12/30 01:49:35;;;;;;;4.10;3.33;;;;;;;3.09;71.54;98933.03;5064134;28;20220;-64
2020/12/30 01:52:02;;;;;;;3.33;2.83;;;;;;;3.06;72.05;98938.50;5060774;28;20266;-64
2020/12/30 01:54:28;;;;;;;4.37;3.03;;;;;;;3.03;71.66;98936.91;5065176;28;20342;-64
2020/12/30 01:56:55;;;;;;;4.13;3.50;;;;;;;3.00;71.64;98946.75;5057144;28;20205;-64
2020/12/30 01:59:22;;;;;;;3.70;3.10;;;;;;;2.97;71.87;98942.53;5056607;28;20205;-64
2020/12/30 02:01:52;;;;;;;2.93;2.70;;;;;;;2.95;71.38;98951.44;5054829;28;20595;-63
2020/12/30 02:04:23;;;;;;;3.40;2.87;;;;;;;2.91;71.93;98948.16;5065945;28;20691;-64
2020/12/30 02:06:49;;;;;;;5.03;2.93;;;;;;;2.89;71.69;98947.38;5057663;28;20201;-64
2020/12/30 02:09:17;;;;;;;5.00;3.27;;;;;;;2.86;71.86;98941.47;5057395;28;20747;-64
2020/12/30 02:11:43;;;;;;;4.17;3.37;;;;;;;2.85;72.55;98947.69;5059010;28;20641;-63
2020/12/30 02:14:11;;;;;;;3.30;3.00;;;;;;;2.83;71.53;98941.66;5058790;28;20219;-64
2020/12/30 02:16:48;;;;;;;3.83;3.23;;;;;;;2.80;72.36;98953.19;5063436;28;20209;-64
2020/12/30 02:19:14;;;;;;;4.67;3.50;;;;;;;2.77;72.46;98954.22;5064718;28;20683;-64
2020/12/30 02:21:41;;;;;;;5.30;3.43;;;;;;;2.74;72.40;98957.03;5068031;28;20235;-64
2020/12/30 02:24:10;;;;;;;4.50;3.20;;;;;;;2.71;72.48;98951.09;5063388;28;20202;-64
2020/12/30 02:26:38;;;;;;;4.00;3.40;;;;;;;2.67;72.46;98963.59;5061451;28;20295;-63
2020/12/30 02:29:04;;;;;;;6.70;3.20;;;;;;;2.65;72.06;98965.47;5061353;28;20256;-64
2020/12/30 02:31:30;;;;;;;4.63;4.03;;;;;;;2.62;72.09;98963.00;5063441;28;20229;-62
2020/12/30 02:33:56;;;;;;;5.70;3.80;;;;;;;2.59;72.31;98963.16;5070016;28;20205;-64
2020/12/30 02:36:22;;;;;;;6.37;3.97;;;;;;;2.58;73.05;98972.00;5064910;28;20223;-64
2020/12/30 02:38:51;;;;;;;5.67;3.70;;;;;;;2.56;72.77;98980.88;5064776;28;20724;-64
2020/12/30 02:41:17;;;;;;;4.30;3.30;;;;;;;2.54;72.44;98983.59;5056521;28;20718;-62
2020/12/30 02:43:44;;;;;;;4.67;3.57;;;;;;;2.50;73.17;98984.75;5052213;28;20208;-64
2020/12/30 02:46:10;;;;;;;4.33;3.53;;;;;;;2.47;72.49;98986.69;5056612;28;20247;-64
2020/12/30 02:48:36;;;;;;;4.70;3.30;;;;;;;2.45;73.05;98984.16;5057799;28;20207;-65
2020/12/30 02:51:02;;;;;;;5.33;3.20;;;;;;;2.41;72.85;98993.13;5059884;28;20717;-63
2020/12/30 02:53:28;;;;;;;4.03;3.63;;;;;;;2.38;73.09;98999.41;5051276;28;20208;-63
2020/12/30 02:55:54;;;;;;;4.33;3.73;;;;;;;2.36;73.66;98997.78;5058409;28;20566;-64
2020/12/30 02:58:20;;;;;;;4.23;3.30;;;;;;;2.35;73.50;98996.09;5053363;28;20205;-64
2020/12/30 03:00:47;;;;;;;5.40;3.50;;;;;;;2.35;73.52;98996.09;5058257;28;20221;-63
2020/12/30 03:03:13;;;;;;;5.00;4.10;;;;;;;2.34;73.41;98997.03;5061128;28;20207;-64
2020/12/30 03:05:39;;;;;;;7.00;4.07;;;;;;;2.33;73.18;98995.34;5068477;28;20208;-64
2020/12/30 03:08:05;;;;;;;4.90;3.67;;;;;;;2.31;73.33;98992.81;5062449;28;20235;-65
2020/12/30 03:10:31;;;;;;;4.80;3.63;;;;;;;2.31;74.22;98995.44;5055407;28;20229;-65
2020/12/30 03:12:57;;;;;;;4.97;4.10;;;;;;;2.30;74.26;98990.25;5059659;28;20232;-65
2020/12/30 03:15:23;;;;;;;4.63;3.80;;;;;;;2.30;73.81;98992.91;5063065;28;20200;-65
2020/12/30 03:17:50;;;;;;;5.67;4.33;;;;;;;2.31;73.59;98992.81;5049850;28;20210;-64
2020/12/30 03:20:16;;;;;;;7.03;4.80;;;;;;;2.33;73.66;98990.09;5054603;28;20225;-65
2020/12/30 03:22:42;;;;;;;6.30;4.37;;;;;;;2.33;73.71;98984.84;5053308;28;20213;-65
2020/12/30 03:25:08;;;;;;;7.47;4.77;;;;;;;2.32;73.95;98994.50;5066759;28;20197;-65
2020/12/30 03:27:34;;;;;;;5.67;4.70;;;;;;;2.32;74.09;98991.03;5060080;28;20205;-65
2020/12/30 03:30:00;;;;;;;5.90;4.17;;;;;;;2.28;73.79;98990.34;5050335;28;20205;-65
2020/12/30 03:32:26;;;;;;;5.10;4.10;;;;;;;2.29;74.48;98991.19;5050358;28;20221;-65
2020/12/30 03:34:53;;;;;;;6.47;3.80;;;;;;;2.27;74.09;98986.03;5061923;28;20684;-65
2020/12/30 03:37:20;;;;;;;10.70;4.90;;;;;;;2.28;73.91;98998.22;5063666;28;20227;-65
2020/12/30 03:39:46;;;;;;;5.83;4.20;;;;;;;2.27;74.35;99001.78;5060523;28;20577;-65
2020/12/30 03:42:12;;;;;;;7.07;4.57;;;;;;;2.29;73.75;99006.97;5058065;28;20275;-65
2020/12/30 03:44:38;;;;;;;6.87;4.77;;;;;;;2.26;74.34;99005.34;5049944;28;20608;-65
2020/12/30 03:47:06;;;;;;;6.70;4.80;;;;;;;2.26;74.32;99002.72;5056795;28;20245;-64
2020/12/30 03:49:32;;;;;;;8.47;5.17;;;;;;;2.24;73.73;98999.31;5062816;28;20210;-66
2020/12/30 03:51:59;;;;;;;5.97;4.07;;;;;;;2.22;73.47;99003.81;5066214;28;20695;-65
2020/12/30 03:54:26;;;;;;;5.53;3.87;;;;;;;2.20;73.70;99002.19;5060111;28;20201;-65
2020/12/30 03:56:52;;;;;;;5.20;4.17;;;;;;;2.18;73.60;99001.44;5064561;28;20228;-65
2020/12/30 03:59:18;;;;;;;5.63;4.33;;;;;;;2.16;73.95;99000.66;5059260;28;20662;-64
2020/12/30 04:01:44;;;;;;;6.57;4.97;;;;;;;2.15;74.21;99004.25;5070701;28;20217;-65
2020/12/30 04:04:12;;;;;;;6.53;4.00;;;;;;;2.13;73.72;98999.09;5061817;28;20205;-65
2020/12/30 04:06:38;;;;;;;5.87;4.77;;;;;;;2.11;74.23;99005.34;5053723;28;20209;-65
2020/12/30 04:09:05;;;;;;;8.10;4.40;;;;;;;2.08;73.99;98998.47;5057909;28;20204;-64
2020/12/30 04:11:31;;;;;;;5.10;4.00;;;;;;;2.07;73.87;99004.66;5067091;28;20313;-64
2020/12/30 04:13:57;;;;;;;4.67;3.80;;;;;;;2.07;74.48;99007.28;5058170;28;20212;-65
2020/12/30 04:16:23;;;;;;;6.47;4.60;;;;;;;2.06;73.96;99002.97;5067417;28;20201;-65
2020/12/30 04:18:50;;;;;;;6.53;4.50;;;;;;;2.05;74.17;99012.63;5062755;28;20256;-65
2020/12/30 04:21:20;;;;;;;6.03;4.00;;;;;;;2.02;73.92;99012.78;5090249;22;20232;-63
2020/12/30 04:23:46;;;;;;;5.93;3.90;;;;;;;1.98;74.31;99016.50;5092011;28;20232;-63
2020/12/30 04:26:13;;;;;;;6.37;4.10;;;;;;;1.95;73.82;99024.56;5092730;28;20204;-63
2020/12/30 04:28:39;;;;;;;7.17;4.00;;;;;;;1.94;74.40;99022.88;5092563;28;20208;-63
2020/12/30 04:31:09;;;;;;;4.57;3.63;;;;;;;1.92;74.54;99032.59;5091675;28;20220;-63
2020/12/30 04:33:35;;;;;;;5.93;3.83;;;;;;;1.91;74.35;99022.19;5066379;28;20631;-64
2020/12/30 04:36:01;;;;;;;9.40;4.13;;;;;;;1.88;74.84;99027.59;5071878;28;20208;-64
2020/12/30 04:38:27;;;;;;;6.30;4.90;;;;;;;1.87;74.65;99024.13;5075464;28;20211;-64
2020/12/30 04:40:55;;;;;;;5.10;3.50;;;;;;;1.86;75.12;99025.06;5079771;28;20205;-62
2020/12/30 04:43:22;;;;;;;7.43;4.30;;;;;;;1.85;74.81;99022.50;5071063;28;20209;-64
2020/12/30 04:45:48;;;;;;;5.37;4.10;;;;;;;1.84;74.38;99024.28;5070936;28;20204;-62
2020/12/30 04:48:14;;;;;;;7.87;4.03;;;;;;;1.83;74.53;99022.59;5064657;28;20212;-63
2020/12/30 04:50:41;;;;;;;6.67;4.33;;;;;;;1.80;75.05;99017.50;5066335;28;20209;-63
2020/12/30 04:53:09;;;;;;;7.80;5.40;;;;;;;1.80;74.58;99028.00;5070999;28;20297;-63
2020/12/30 04:55:36;;;;;;;5.90;4.10;;;;;;;1.78;75.09;99024.63;5073072;28;20239;-63
2020/12/30 04:58:06;;;;;;;8.17;5.07;;;;;;;1.78;75.14;99018.53;5071478;28;20205;-63
2020/12/30 05:00:35;;;;;;;4.13;3.73;;;;;;;1.75;75.05;99024.78;5066580;28;20304;-61
2020/12/30 05:03:07;;;;;;;5.50;3.70;;;;;;;1.70;74.82;99026.81;5071239;28;20708;-63
2020/12/30 05:05:38;;;;;;;4.33;3.57;;;;;;;1.64;74.96;99016.63;5072103;28;20208;-63
2020/12/30 05:08:07;;;;;;;7.10;3.70;;;;;;;1.60;74.95;99021.22;5065839;28;20262;-62
2020/12/30 05:10:36;;;;;;;5.67;3.80;;;;;;;1.55;75.04;99022.38;5070410;28;20208;-60
2020/12/30 05:13:02;;;;;;;5.53;3.60;;;;;;;1.49;74.70;99027.91;5070244;28;20250;-61
2020/12/30 05:15:28;;;;;;;4.70;3.40;;;;;;;1.44;74.97;99032.56;5070315;28;20254;-62
2020/12/30 05:17:55;;;;;;;6.17;3.90;;;;;;;1.37;74.73;99025.03;5072120;28;20212;-63
2020/12/30 05:20:24;;;;;;;6.07;3.67;;;;;;;1.32;74.89;99037.50;5070578;28;20208;-63
2020/12/30 05:22:50;;;;;;;5.90;3.70;;;;;;;1.28;75.32;99043.00;5066929;28;20221;-63
2020/12/30 05:25:16;;;;;;;6.73;3.70;;;;;;;1.23;75.61;99038.00;5072048;28;20227;-63
2020/12/30 05:27:43;;;;;;;4.27;3.20;;;;;;;1.19;75.03;99031.22;5070845;28;20291;-63
2020/12/30 05:30:09;;;;;;;4.57;4.00;;;;;;;1.16;75.08;99036.59;5064068;28;20236;-63
2020/12/30 05:32:37;;;;;;;4.67;3.43;;;;;;;1.14;75.25;99033.22;5074606;28;20232;-65
2020/12/30 05:35:04;;;;;;;7.03;3.30;;;;;;;1.10;75.50;99044.78;5059260;28;20263;-64
2020/12/30 05:37:32;;;;;;;10.30;4.23;;;;;;;1.07;75.93;99039.72;5070215;28;20209;-58
2020/12/30 05:39:58;;;;;;;4.97;3.70;;;;;;;1.03;75.73;99035.53;5070406;28;20201;-61
2020/12/30 05:42:24;;;;;;;5.50;3.43;;;;;;;1.00;76.19;99046.16;5070024;28;20617;-63
2020/12/30 05:44:52;;;;;;;5.73;3.53;;;;;;;0.97;76.06;99041.94;5071635;28;20639;-63
2020/12/30 05:47:20;;;;;;;5.83;3.83;;;;;;;0.96;76.25;99049.84;5071844;28;20201;-63
2020/12/30 05:49:48;;;;;;;5.20;4.00;;;;;;;0.93;76.01;99056.09;5071628;28;20254;-64
2020/12/30 05:52:20;;;;;;;4.37;3.57;;;;;;;0.90;76.32;99061.50;5070079;28;20224;-63
2020/12/30 05:54:48;;;;;;;4.60;3.60;;;;;;;0.87;76.44;99056.41;5065669;28;20219;-61
2020/12/30 05:57:26;;;;;;;5.63;3.77;;;;;;;0.85;76.68;99065.28;5070691;28;20205;-64
2020/12/30 05:59:54;;;;;;;6.70;4.13;;;;;;;0.82;76.33;99068.03;5067056;28;20200;-63
2020/12/30 06:02:25;;;;;;;5.53;3.80;;;;;;;0.79;76.69;99071.66;5070147;28;20221;-63
2020/12/30 06:04:52;;;;;;;8.43;4.27;;;;;;;0.78;76.73;99066.50;5070888;28;20207;-63
2020/12/30 06:07:20;;;;;;;5.50;3.80;;;;;;;0.74;76.78;99073.66;5070188;28;20218;-61
2020/12/30 06:09:54;;;;;;;5.73;3.87;;;;;;;0.71;76.73;99072.97;5069772;28;20208;-63
2020/12/30 06:12:27;;;;;;;5.73;4.00;;;;;;;0.71;76.95;99075.59;5070066;28;20224;-62
2020/12/30 06:14:54;;;;;;;5.93;4.13;;;;;;;0.71;77.09;99078.22;5068426;28;20201;-63
2020/12/30 06:17:30;;;;;;;6.00;3.73;;;;;;;0.71;77.04;99075.59;5067641;28;20207;-62
2020/12/30 06:19:58;;;;;;;4.43;3.57;;;;;;;0.72;77.36;99080.72;5068401;28;20216;-62
2020/12/30 06:22:25;;;;;;;4.17;3.37;;;;;;;0.75;77.32;99077.13;5069400;28;20716;-63
2020/12/30 06:24:56;;;;;;;4.00;3.60;;;;;;;0.77;77.29;99086.59;5070687;28;20331;-63
2020/12/30 06:27:25;;;;;;;5.13;3.50;;;;;;;0.82;77.78;99091.63;5070466;28;20669;-63
2020/12/30 06:29:55;;;;;;;4.83;3.60;;;;;;;0.85;77.50;99094.97;5074508;28;20229;-62
2020/12/30 06:32:36;;;;;;;4.27;3.53;;;;;;;0.89;78.07;99093.03;5070665;28;20228;-63
2020/12/30 06:35:03;;;;;;;5.37;3.53;;;;;;;0.93;78.38;99099.81;5064847;28;20295;-63
2020/12/30 06:37:32;;;;;;;4.53;3.33;;;;;;;0.97;78.28;99107.44;5061836;28;20201;-64
2020/12/30 06:40:18;;;;;;;5.13;3.53;;;;;;;1.01;78.15;99109.00;5055101;28;20215;-64
2020/12/30 06:42:44;;;;;;;4.23;3.50;;;;;;;1.04;78.64;99110.63;5063341;28;20225;-63
2020/12/30 06:45:12;;;;;;;5.33;3.50;;;;;;;1.04;78.56;99111.50;5056193;28;20197;-63
2020/12/30 06:47:58;;;;;;;4.47;3.37;;;;;;;1.07;78.24;99118.34;5069267;28;20665;-63
2020/12/30 06:50:24;;;;;;;5.20;3.90;;;;;;;1.08;78.22;99124.41;5070061;28;20365;-64
2020/12/30 06:52:51;;;;;;;4.83;3.57;;;;;;;1.08;78.74;99127.03;5069190;28;20254;-64
2020/12/30 06:55:17;;;;;;;4.73;3.80;;;;;;;1.08;78.30;99127.88;5069171;28;20215;-63
2020/12/30 06:57:45;;;;;;;5.13;4.07;;;;;;;1.09;78.49;99134.84;5069733;28;20696;-63
2020/12/30 07:00:34;;;;;;;4.93;3.87;;;;;;;1.11;78.53;99142.63;5059927;28;20707;-64
2020/12/30 07:03:14;;;;;;;4.97;3.70;;;;;;;1.11;78.96;99135.63;5067272;28;20220;-63
2020/12/30 07:05:40;;;;;;;5.57;4.63;;;;;;;1.11;78.96;99133.00;5069468;28;20196;-63
2020/12/30 07:08:07;;;;;;;5.53;3.70;;;;;;;1.13;78.82;99139.00;5060057;28;20205;-64
2020/12/30 07:10:40;;;;;;;6.77;4.33;;;;;;;1.13;78.91;99144.25;5060454;28;20205;-64
2020/12/30 07:13:06;;;;;;;5.50;3.73;;;;;;;1.15;79.07;99154.66;5065432;28;20229;-64
2020/12/30 07:15:32;;;;;;;6.07;4.60;;;;;;;1.14;79.13;99153.81;5070676;28;20724;-63
2020/12/30 07:17:58;;;;;;;5.63;4.50;;;;;;;1.13;78.84;99160.00;5062669;28;20201;-62
2020/12/30 07:20:24;;;;;;;6.90;4.87;;;;;;;1.14;79.22;99160.84;5069689;28;20687;-63
2020/12/30 07:22:51;;;;;;;5.83;4.57;;;;;;;1.14;79.30;99156.44;5070535;28;20229;-64
2020/12/30 07:25:18;;;;;;;5.90;4.30;;;;;;;1.16;79.21;99167.72;5072060;28;20661;-63
2020/12/30 07:27:44;;;;;;;6.13;4.50;;;;;;;1.18;79.13;99171.09;5070085;28;20208;-61
2020/12/30 07:30:10;;;;;;;5.37;4.20;;;;;;;1.21;79.33;99170.13;5069175;28;20197;-63
2020/12/30 07:32:36;;;;;;;5.13;4.50;;;;;;;1.22;79.62;99177.91;5068654;28;20232;-64
2020/12/30 07:35:06;;;;;;;5.53;4.50;;;;;;;1.25;79.72;99180.38;5062755;28;20666;-63
2020/12/30 07:37:33;;;;;;;5.03;4.07;;;;;;;1.27;79.83;99177.66;5069298;28;20240;-62
2020/12/30 07:39:59;;;;;;;6.33;4.87;;;;;;;1.27;79.83;99183.75;5070328;28;20204;-63
2020/12/30 07:42:27;;;;;;;6.53;4.27;;;;;;;1.30;79.81;99188.00;5064165;28;20224;-63
2020/12/30 07:44:54;;;;;;;6.60;4.40;;;;;;;1.33;80.14;99193.09;5071418;28;20196;-65
2020/12/30 07:47:22;;;;;;;6.30;4.53;;;;;;;1.35;79.68;99205.22;5076231;28;20215;-63
2020/12/30 07:49:48;;;;;;;5.40;4.27;;;;;;;1.38;79.91;99199.00;5067059;28;20208;-64
2020/12/30 07:52:15;;;;;;;6.13;4.60;;;;;;;1.36;79.91;99204.31;5067192;28;20227;-63
2020/12/30 07:54:41;;;;;;;6.50;5.13;;;;;;;1.36;79.72;99204.31;5067275;28;20209;-65
2020/12/30 07:57:08;;;;;;;6.23;4.30;;;;;;;1.36;79.97;99211.31;5069603;28;20641;-59
2020/12/30 07:59:37;;;;;;;6.10;4.83;;;;;;;1.34;79.98;99214.03;5063731;28;20202;-62
2020/12/30 08:02:05;;;;;;;5.17;4.37;;;;;;;1.32;79.70;99210.63;5055845;28;20283;-63
2020/12/30 08:04:33;;;;;;;6.40;4.90;;;;;;;1.30;79.90;99207.22;5062422;28;20206;-63
2020/12/30 08:06:59;;;;;;;8.70;4.90;;;;;;;1.28;80.04;99214.31;5060435;28;20209;-63
2020/12/30 08:09:27;;;;;;;5.63;4.50;;;;;;;1.26;79.90;99215.31;5060260;28;20205;-63
2020/12/30 08:11:55;;;;;;;18.27;5.47;;;;;;;1.24;79.84;99220.66;5055236;28;20232;-66
2020/12/30 08:14:23;;;;;;;5.77;5.07;;;;;;;1.24;80.20;99227.66;5065242;28;20201;-65
2020/12/30 08:16:55;;;;;;;7.43;4.63;;;;;;;1.22;79.69;99232.13;5061875;28;20201;-61
2020/12/30 08:19:38;;;;;;;6.37;4.93;;;;;;;1.19;80.11;99235.75;5063827;28;20205;-62
2020/12/30 08:22:12;;;;;;;7.20;4.83;;;;;;;1.18;79.85;99238.44;5059895;28;20609;-63
2020/12/30 08:24:41;;;;;;;8.53;5.30;;;;;;;1.16;79.82;99238.50;5059639;28;20211;-66
2020/12/30 08:27:08;;;;;;;5.43;4.90;;;;;;;1.14;80.04;99248.22;5057616;28;20711;-64
2020/12/30 08:29:36;;;;;;;6.40;5.70;;;;;;;1.14;80.12;99247.38;5057056;28;20204;-64
2020/12/30 08:32:12;;;;;;;6.23;5.30;;;;;;;1.13;80.17;99246.50;5057702;28;20235;-65
2020/12/30 08:34:42;;;;;;;8.17;6.40;;;;;;;1.12;80.08;99250.06;5065606;28;20197;-64
2020/12/30 08:37:12;;;;;;;7.57;5.70;;;;;;;1.13;80.30;99243.88;5061500;28;20205;-65
2020/12/30 08:39:45;;;;;;;6.60;5.57;;;;;;;1.13;80.45;99238.66;5066189;28;20661;-65
2020/12/30 08:42:32;;;;;;;9.80;6.60;;;;;;;1.18;80.22;99241.06;5063063;28;20217;-63
2020/12/30 08:45:01;;;;;;;10.43;7.30;;;;;;;1.18;80.66;99241.91;5061742;28;20205;-65
2020/12/30 08:47:37;;;;;;;9.80;7.70;;;;;;;1.19;80.42;99248.84;5062901;28;20217;-64
2020/12/30 08:50:06;;;;;;;17.17;11.83;;;;;;;1.19;80.49;99248.00;5063126;28;20203;-66
2020/12/30 08:52:39;;;;;;;10.97;7.70;;;;;;;1.22;80.54;99255.72;5058390;28;20229;-64
2020/12/30 08:55:05;;;;;;;11.73;7.33;;;;;;;1.27;80.79;99257.19;5065721;28;20226;-65
2020/12/30 08:57:31;;;;;;;10.87;7.37;;;;;;;1.34;80.76;99247.28;5057583;28;20201;-66
2020/12/30 09:00:12;;;;;;;8.63;6.53;;;;;;;1.41;80.74;99259.19;5060878;28;20215;-66
2020/12/30 09:02:39;;;;;;;8.93;6.77;;;;;;;1.48;80.78;99249.22;5061480;28;20225;-65
2020/12/30 09:05:05;;;;;;;9.27;6.57;;;;;;;1.57;81.38;99248.78;5064336;28;20270;-65
2020/12/30 09:07:31;;;;;;;7.73;5.87;;;;;;;1.64;81.45;99253.63;5064705;28;20213;-65
2020/12/30 09:10:05;;;;;;;8.57;6.23;;;;;;;1.74;81.49;99259.31;5064128;28;20209;-65
2020/12/30 09:12:31;;;;;;;8.67;5.90;;;;;;;1.82;81.48;99265.00;5057830;28;20324;-64
2020/12/30 09:14:57;;;;;;;8.77;6.30;;;;;;;1.88;81.81;99274.34;5063612;28;20220;-65
2020/12/30 09:17:23;;;;;;;9.17;5.93;;;;;;;1.93;81.09;99275.00;5062756;28;20214;-65
2020/12/30 09:19:50;;;;;;;8.73;6.03;;;;;;;1.98;81.56;99275.59;5059171;28;20210;-63
2020/12/30 09:22:16;;;;;;;7.03;6.00;;;;;;;2.02;81.58;99279.75;5070790;28;20311;-65
2020/12/30 09:24:43;;;;;;;6.90;5.80;;;;;;;2.07;81.51;99283.88;5069400;28;20255;-64
2020/12/30 09:27:20;;;;;;;9.33;6.50;;;;;;;2.13;81.24;99287.13;5070237;28;20204;-65
2020/12/30 09:30:10;;;;;;;11.47;6.60;;;;;;;2.19;81.38;99298.16;5070867;28;20354;-65
2020/12/30 09:32:36;;;;;;;8.10;6.13;;;;;;;2.21;81.44;99287.56;5061435;28;20225;-64
2020/12/30 09:35:04;;;;;;;8.17;6.63;;;;;;;2.24;81.26;99290.03;5070936;28;20208;-64
2020/12/30 09:37:30;;;;;;;9.40;7.20;;;;;;;2.27;81.05;99284.63;5072753;28;20653;-63
2020/12/30 09:40:08;;;;;;;9.67;6.97;;;;;;;2.30;81.35;99281.84;5060172;28;20213;-64
2020/12/30 09:42:35;;;;;;;8.43;6.53;;;;;;;2.36;80.94;99290.25;5054197;28;20726;-65
2020/12/30 09:45:01;;;;;;;9.43;6.90;;;;;;;2.42;80.94;99289.09;5059578;28;20197;-66
2020/12/30 09:47:27;;;;;;;8.17;6.40;;;;;;;2.47;80.32;99297.59;5059322;28;20321;-70
2020/12/30 09:49:53;;;;;;;8.90;6.83;;;;;;;2.51;80.40;99293.84;5061491;28;20231;-69
2020/12/30 09:52:20;;;;;;;9.03;6.90;;;;;;;2.56;80.57;99301.50;5068996;28;20228;-71
2020/12/30 09:54:46;;;;;;;7.40;5.80;;;;;;;2.62;80.36;99296.78;5063869;28;20670;-72
2020/12/30 09:57:12;;;;;;;7.87;6.70;;;;;;;2.69;80.72;99294.66;5061208;28;20227;-69
2020/12/30 09:59:38;;;;;;;9.33;6.80;;;;;;;2.77;80.08;99303.03;5070594;28;20204;-69
2020/12/30 10:02:04;;;;;;;9.40;5.90;;;;;;;2.84;80.54;99301.78;5069585;28;20301;-68
2020/12/30 10:04:30;;;;;;;6.87;5.30;;;;;;;2.91;80.23;99300.50;5071249;28;20609;-71
2020/12/30 10:06:56;;;;;;;6.63;5.10;;;;;;;3.00;79.67;99307.91;5071305;28;20205;-70
2020/12/30 10:09:23;;;;;;;8.07;6.30;;;;;;;3.05;79.57;99310.25;5070734;28;20207;-70
2020/12/30 10:11:51;;;;;;;8.20;6.33;;;;;;;3.11;79.61;99307.31;5069026;28;20676;-70
2020/12/30 10:14:20;;;;;;;7.27;5.80;;;;;;;3.17;79.37;99299.09;5069872;28;20204;-70
2020/12/30 10:16:46;;;;;;;8.47;6.00;;;;;;;3.25;78.88;99311.81;5070712;28;20223;-69
2020/12/30 10:19:12;;;;;;;7.17;5.20;;;;;;;3.29;78.58;99314.22;5069261;28;20200;-67
2020/12/30 10:21:38;;;;;;;6.57;5.47;;;;;;;3.35;77.94;99313.88;5090411;22;20312;-66
2020/12/30 10:24:04;;;;;;;7.73;5.43;;;;;;;3.38;77.75;99318.97;5075404;28;20204;-66
2020/12/30 10:26:32;;;;;;;8.10;5.70;;;;;;;3.42;77.30;99315.22;5080321;28;20231;-66
2020/12/30 10:28:58;;;;;;;8.40;5.57;;;;;;;3.47;77.17;99320.25;5078585;28;20258;-67
2020/12/30 10:31:24;;;;;;;6.77;5.27;;;;;;;3.52;77.36;99312.94;5065793;28;20201;-67
2020/12/30 10:33:51;;;;;;;12.77;8.43;;;;;;;3.55;76.55;99306.66;5056513;28;20707;-66
2020/12/30 10:36:17;;;;;;;9.57;6.07;;;;;;;3.61;76.78;99308.94;5051878;28;20229;-66
2020/12/30 10:38:43;;;;;;;5.43;4.20;;;;;;;3.68;76.33;99312.94;5055144;28;20210;-66
2020/12/30 10:41:15;;;;;;;6.40;5.43;;;;;;;3.74;75.91;99309.97;5055049;28;20197;-66
2020/12/30 10:43:42;;;;;;;5.70;4.53;;;;;;;3.81;75.67;99311.28;5056237;28;20206;-67
2020/12/30 10:46:12;;;;;;;6.67;4.63;;;;;;;3.86;75.67;99311.88;5059239;28;20197;-65
2020/12/30 10:48:39;;;;;;;5.40;4.30;;;;;;;3.86;74.92;99309.25;5056731;28;20265;-67
2020/12/30 10:51:09;;;;;;;7.00;5.00;;;;;;;3.89;74.02;99308.22;5064790;28;20208;-66
2020/12/30 10:53:35;;;;;;;5.87;4.00;;;;;;;3.91;74.32;99304.56;5047883;28;20247;-66
2020/12/30 10:56:01;;;;;;;5.17;4.07;;;;;;;3.96;73.70;99296.38;5053677;28;20200;-66
2020/12/30 10:58:29;;;;;;;5.20;3.70;;;;;;;3.97;73.57;99306.84;5062837;28;20206;-66
2020/12/30 11:00:55;;;;;;;8.27;4.10;;;;;;;4.00;73.06;99309.31;5054952;28;20211;-65
2020/12/30 11:03:22;;;;;;;4.57;3.50;;;;;;;3.99;72.90;99299.69;5057976;28;20273;-65
2020/12/30 11:05:48;;;;;;;6.50;4.60;;;;;;;4.02;72.88;99298.69;5063553;28;20665;-67
2020/12/30 11:08:14;;;;;;;6.33;4.57;;;;;;;4.02;72.41;99299.53;5063611;28;20201;-67
2020/12/30 11:10:40;;;;;;;5.70;4.00;;;;;;;4.04;72.09;99304.72;5058233;28;20697;-68
2020/12/30 11:13:06;;;;;;;5.33;3.93;;;;;;;4.05;72.21;99309.03;5052426;28;20220;-67
2020/12/30 11:15:35;;;;;;;5.63;4.13;;;;;;;4.06;71.61;99306.31;5049646;28;20205;-67
2020/12/30 11:18:02;;;;;;;9.07;4.37;;;;;;;4.08;71.38;99303.59;5062516;28;20210;-67
2020/12/30 11:20:28;;;;;;;8.50;4.70;;;;;;;4.10;71.41;99307.84;5054155;28;20756;-65
2020/12/30 11:22:54;;;;;;;5.53;4.30;;;;;;;4.12;71.07;99300.69;5063954;28;20224;-66
2020/12/30 11:25:20;;;;;;;6.07;3.93;;;;;;;4.14;71.36;99303.22;5052924;28;20331;-66
2020/12/30 11:27:47;;;;;;;7.73;6.47;;;;;;;4.16;71.29;99317.16;5054322;28;20205;-65
2020/12/30 11:30:13;;;;;;;5.57;5.07;;;;;;;4.16;70.44;99303.97;5049780;28;20206;-66
2020/12/30 11:32:39;;;;;;;10.70;9.60;;;;;;;4.18;70.84;99312.66;5063689;28;20278;-65
2020/12/30 11:35:07;;;;;;;8.40;5.53;;;;;;;4.18;70.73;99305.59;5065472;28;20211;-66
2020/12/30 11:37:33;;;;;;;6.87;5.30;;;;;;;4.19;70.66;99314.34;5064090;28;20207;-65
2020/12/30 11:39:59;;;;;;;5.97;4.70;;;;;;;4.19;70.64;99301.19;5060210;28;20213;-66
2020/12/30 11:42:25;;;;;;;6.20;5.07;;;;;;;4.17;70.27;99303.91;5055186;28;20231;-66
2020/12/30 11:44:51;;;;;;;9.27;6.70;;;;;;;4.15;69.81;99292.59;5058492;28;20201;-66